Belvedere, California
Current Conditions -  °F | °C
As of 3:53 PM on Monday 24 Nov 2014 (Local Time) from KOAK Reporting Station
Few Clouds Few Clouds  
Wind Chill: 61°   Ceiling: Unl
Heat Index: 61°   Visibility: 10mi
Dew Point: 41°   Wind: 3mph
Humidity: 48%   Direction: 260°W
Pressure: 30.34"   Gusts: NA
Location:  37.8931°N, 122.472°W
Report Text: KOAK 242353Z 26003KT 10SM FEW250 16/05 A3034 RMK AO2 SLP273 T01610050 10167 20139 56009
Loading
Personal Weather Stations






























Interactive Weather Map New forecast layout! Learn more

10-Day Weather Forecast

Advertisements
Track Severe Weather on mobile